sensor_id;sensor_type;location;lat;lon;timestamp;temperature;humidity
22069;DHT22;13887;57.196;-2.100;2022-12-07T00:03:37;4.49;83.47
22069;DHT22;13887;57.196;-2.100;2022-12-07T00:06:06;4.47;83.32
22069;DHT22;13887;57.196;-2.100;2022-12-07T00:08:34;4.45;83.55
22069;DHT22;13887;57.196;-2.100;2022-12-07T00:11:10;4.48;83.42
22069;DHT22;13887;57.196;-2.100;2022-12-07T00:13:37;4.44;83.58
22069;DHT22;13887;57.196;-2.100;2022-12-07T00:16:10;4.46;83.61
22069;DHT22;13887;57.196;-2.100;2022-12-07T00:18:38;4.41;83.66
22069;DHT22;13887;57.196;-2.100;2022-12-07T00:21:09;4.47;83.47
22069;DHT22;13887;57.196;-2.100;2022-12-07T00:23:37;4.48;83.41
22069;DHT22;13887;57.196;-2.100;2022-12-07T00:28:41;4.48;83.40
22069;DHT22;13887;57.196;-2.100;2022-12-07T00:31:12;4.45;83.37
22069;DHT22;13887;57.196;-2.100;2022-12-07T00:33:40;4.46;83.42
22069;DHT22;13887;57.196;-2.100;2022-12-07T00:36:09;4.46;83.39
22069;DHT22;13887;57.196;-2.100;2022-12-07T00:38:37;4.44;83.45
22069;DHT22;13887;57.196;-2.100;2022-12-07T00:41:08;4.41;83.51
22069;DHT22;13887;57.196;-2.100;2022-12-07T00:43:36;4.44;83.43
22069;DHT22;13887;57.196;-2.100;2022-12-07T00:46:03;4.47;83.29
22069;DHT22;13887;57.196;-2.100;2022-12-07T00:48:30;4.46;83.28
22069;DHT22;13887;57.196;-2.100;2022-12-07T00:50:57;4.47;83.41
22069;DHT22;13887;57.196;-2.100;2022-12-07T00:53:25;4.49;83.26
22069;DHT22;13887;57.196;-2.100;2022-12-07T00:55:51;4.48;83.30
22069;DHT22;13887;57.196;-2.100;2022-12-07T00:58:19;4.50;83.34
22069;DHT22;13887;57.196;-2.100;2022-12-07T01:00:46;4.42;83.55
22069;DHT22;13887;57.196;-2.100;2022-12-07T01:03:14;4.39;83.67
22069;DHT22;13887;57.196;-2.100;2022-12-07T01:05:53;4.43;83.55
22069;DHT22;13887;57.196;-2.100;2022-12-07T01:08:20;4.46;83.45
22069;DHT22;13887;57.196;-2.100;2022-12-07T01:10:48;4.45;83.41
22069;DHT22;13887;57.196;-2.100;2022-12-07T01:13:16;4.47;83.39
22069;DHT22;13887;57.196;-2.100;2022-12-07T01:15:44;4.48;83.43
22069;DHT22;13887;57.196;-2.100;2022-12-07T01:18:11;4.50;83.27
22069;DHT22;13887;57.196;-2.100;2022-12-07T01:20:38;4.52;83.25
22069;DHT22;13887;57.196;-2.100;2022-12-07T01:23:04;4.50;83.33
22069;DHT22;13887;57.196;-2.100;2022-12-07T01:25:31;4.47;83.40
22069;DHT22;13887;57.196;-2.100;2022-12-07T01:27:58;4.48;83.39
22069;DHT22;13887;57.196;-2.100;2022-12-07T01:30:25;4.45;83.51
22069;DHT22;13887;57.196;-2.100;2022-12-07T01:32:52;4.46;83.44
22069;DHT22;13887;57.196;-2.100;2022-12-07T01:35:19;4.44;83.51
22069;DHT22;13887;57.196;-2.100;2022-12-07T01:37:46;4.43;83.50
22069;DHT22;13887;57.196;-2.100;2022-12-07T01:40:13;4.39;83.56
22069;DHT22;13887;57.196;-2.100;2022-12-07T01:42:39;4.42;83.68
22069;DHT22;13887;57.196;-2.100;2022-12-07T01:48:02;4.37;83.50
22069;DHT22;13887;57.196;-2.100;2022-12-07T01:50:29;4.39;83.58
22069;DHT22;13887;57.196;-2.100;2022-12-07T01:53:01;4.44;83.38
22069;DHT22;13887;57.196;-2.100;2022-12-07T01:55:30;4.46;83.26
22069;DHT22;13887;57.196;-2.100;2022-12-07T01:57:57;4.42;83.35
22069;DHT22;13887;57.196;-2.100;2022-12-07T02:00:24;4.41;83.29
22069;DHT22;13887;57.196;-2.100;2022-12-07T02:03:04;4.36;83.48
22069;DHT22;13887;57.196;-2.100;2022-12-07T02:05:33;4.38;83.42
22069;DHT22;13887;57.196;-2.100;2022-12-07T02:08:01;4.35;83.24
22069;DHT22;13887;57.196;-2.100;2022-12-07T02:10:31;4.37;83.49
22069;DHT22;13887;57.196;-2.100;2022-12-07T02:15:47;4.39;83.33
22069;DHT22;13887;57.196;-2.100;2022-12-07T02:26:48;4.41;83.36
22069;DHT22;13887;57.196;-2.100;2022-12-07T02:29:27;4.42;83.38
22069;DHT22;13887;57.196;-2.100;2022-12-07T02:32:10;4.42;83.41
22069;DHT22;13887;57.196;-2.100;2022-12-07T02:34:58;4.41;83.42
22069;DHT22;13887;57.196;-2.100;2022-12-07T02:42:45;4.43;83.42
22069;DHT22;13887;57.196;-2.100;2022-12-07T02:45:15;4.41;83.41
22069;DHT22;13887;57.196;-2.100;2022-12-07T02:47:44;4.42;83.48
22069;DHT22;13887;57.196;-2.100;2022-12-07T02:50:13;4.43;83.46
22069;DHT22;13887;57.196;-2.100;2022-12-07T02:52:40;4.47;83.32
22069;DHT22;13887;57.196;-2.100;2022-12-07T02:55:08;4.45;83.29
22069;DHT22;13887;57.196;-2.100;2022-12-07T03:01:01;4.46;83.13
22069;DHT22;13887;57.196;-2.100;2022-12-07T03:03:31;4.47;83.00
22069;DHT22;13887;57.196;-2.100;2022-12-07T03:06:16;4.48;83.00
22069;DHT22;13887;57.196;-2.100;2022-12-07T03:09:05;4.47;82.98
22069;DHT22;13887;57.196;-2.100;2022-12-07T03:11:46;4.43;82.74
22069;DHT22;13887;57.196;-2.100;2022-12-07T03:14:46;4.45;82.79
22069;DHT22;13887;57.196;-2.100;2022-12-07T03:17:16;4.45;82.71
22069;DHT22;13887;57.196;-2.100;2022-12-07T03:19:45;4.48;82.62
22069;DHT22;13887;57.196;-2.100;2022-12-07T03:22:13;4.44;82.71
22069;DHT22;13887;57.196;-2.100;2022-12-07T03:24:59;4.39;82.83
22069;DHT22;13887;57.196;-2.100;2022-12-07T03:27:33;4.39;83.08
22069;DHT22;13887;57.196;-2.100;2022-12-07T03:35:25;4.36;83.66
22069;DHT22;13887;57.196;-2.100;2022-12-07T03:40:28;4.29;83.89
22069;DHT22;13887;57.196;-2.100;2022-12-07T03:42:57;4.29;83.97
22069;DHT22;13887;57.196;-2.100;2022-12-07T03:48:46;4.33;83.87
22069;DHT22;13887;57.196;-2.100;2022-12-07T03:51:40;4.30;83.99
22069;DHT22;13887;57.196;-2.100;2022-12-07T03:54:33;4.27;83.92
22069;DHT22;13887;57.196;-2.100;2022-12-07T03:57:01;4.30;84.01
22069;DHT22;13887;57.196;-2.100;2022-12-07T03:59:29;4.27;83.66
22069;DHT22;13887;57.196;-2.100;2022-12-07T04:02:02;4.22;84.15
22069;DHT22;13887;57.196;-2.100;2022-12-07T04:04:30;4.22;84.08
22069;DHT22;13887;57.196;-2.100;2022-12-07T04:06:57;4.23;84.11
22069;DHT22;13887;57.196;-2.100;2022-12-07T04:09:24;4.24;83.91
22069;DHT22;13887;57.196;-2.100;2022-12-07T04:11:51;4.23;83.88
22069;DHT22;13887;57.196;-2.100;2022-12-07T04:14:18;4.23;84.00
22069;DHT22;13887;57.196;-2.100;2022-12-07T04:16:50;4.19;84.05
22069;DHT22;13887;57.196;-2.100;2022-12-07T04:19:19;4.23;84.13
22069;DHT22;13887;57.196;-2.100;2022-12-07T04:21:47;4.28;83.74
22069;DHT22;13887;57.196;-2.100;2022-12-07T04:24:14;4.23;83.75
22069;DHT22;13887;57.196;-2.100;2022-12-07T04:26:42;4.27;83.75
22069;DHT22;13887;57.196;-2.100;2022-12-07T04:29:10;4.24;83.78
22069;DHT22;13887;57.196;-2.100;2022-12-07T04:31:37;4.27;83.63
22069;DHT22;13887;57.196;-2.100;2022-12-07T04:34:05;4.28;83.65
22069;DHT22;13887;57.196;-2.100;2022-12-07T04:36:32;4.27;83.61
22069;DHT22;13887;57.196;-2.100;2022-12-07T04:39:00;4.23;83.59
22069;DHT22;13887;57.196;-2.100;2022-12-07T04:41:27;4.27;83.82
22069;DHT22;13887;57.196;-2.100;2022-12-07T04:44:00;4.23;83.66
22069;DHT22;13887;57.196;-2.100;2022-12-07T04:46:28;4.27;83.66
22069;DHT22;13887;57.196;-2.100;2022-12-07T04:48:56;4.26;83.63
22069;DHT22;13887;57.196;-2.100;2022-12-07T04:51:26;4.22;83.77
22069;DHT22;13887;57.196;-2.100;2022-12-07T04:53:54;4.22;83.71
22069;DHT22;13887;57.196;-2.100;2022-12-07T04:56:22;4.23;83.65
22069;DHT22;13887;57.196;-2.100;2022-12-07T04:58:50;4.23;83.58
22069;DHT22;13887;57.196;-2.100;2022-12-07T05:01:17;4.23;83.62
22069;DHT22;13887;57.196;-2.100;2022-12-07T05:03:45;4.27;83.62
22069;DHT22;13887;57.196;-2.100;2022-12-07T05:06:12;4.23;83.41
22069;DHT22;13887;57.196;-2.100;2022-12-07T05:08:40;4.24;83.44
22069;DHT22;13887;57.196;-2.100;2022-12-07T05:11:07;4.27;83.32
22069;DHT22;13887;57.196;-2.100;2022-12-07T05:13:35;4.30;83.26
22069;DHT22;13887;57.196;-2.100;2022-12-07T05:16:02;4.26;83.24
22069;DHT22;13887;57.196;-2.100;2022-12-07T05:18:30;4.17;83.54
22069;DHT22;13887;57.196;-2.100;2022-12-07T05:20:56;4.16;83.49
22069;DHT22;13887;57.196;-2.100;2022-12-07T05:23:23;4.13;83.66
22069;DHT22;13887;57.196;-2.100;2022-12-07T05:25:50;4.20;83.49
22069;DHT22;13887;57.196;-2.100;2022-12-07T05:28:17;4.19;83.29
22069;DHT22;13887;57.196;-2.100;2022-12-07T05:30:44;4.22;83.26
22069;DHT22;13887;57.196;-2.100;2022-12-07T05:33:11;4.23;83.28
22069;DHT22;13887;57.196;-2.100;2022-12-07T05:35:38;4.26;83.29
22069;DHT22;13887;57.196;-2.100;2022-12-07T05:38:05;4.20;83.38
22069;DHT22;13887;57.196;-2.100;2022-12-07T05:40:32;4.21;83.37
22069;DHT22;13887;57.196;-2.100;2022-12-07T05:42:59;4.27;83.16
22069;DHT22;13887;57.196;-2.100;2022-12-07T05:45:30;4.21;83.24
22069;DHT22;13887;57.196;-2.100;2022-12-07T05:47:57;4.23;83.36
22069;DHT22;13887;57.196;-2.100;2022-12-07T05:50:24;4.24;83.32
22069;DHT22;13887;57.196;-2.100;2022-12-07T05:52:59;4.17;83.42
22069;DHT22;13887;57.196;-2.100;2022-12-07T05:55:26;4.17;83.61
22069;DHT22;13887;57.196;-2.100;2022-12-07T05:57:53;4.18;83.45
22069;DHT22;13887;57.196;-2.100;2022-12-07T06:00:38;4.18;83.45
22069;DHT22;13887;57.196;-2.100;2022-12-07T06:03:05;4.16;83.61
22069;DHT22;13887;57.196;-2.100;2022-12-07T06:05:32;4.18;83.61
22069;DHT22;13887;57.196;-2.100;2022-12-07T06:07:59;4.21;83.42
22069;DHT22;13887;57.196;-2.100;2022-12-07T06:10:31;4.23;83.42
22069;DHT22;13887;57.196;-2.100;2022-12-07T06:12:58;4.19;83.44
22069;DHT22;13887;57.196;-2.100;2022-12-07T06:15:25;4.20;83.33
22069;DHT22;13887;57.196;-2.100;2022-12-07T06:17:52;4.23;83.36
22069;DHT22;13887;57.196;-2.100;2022-12-07T06:20:19;4.20;83.32
22069;DHT22;13887;57.196;-2.100;2022-12-07T06:22:46;4.21;83.17
22069;DHT22;13887;57.196;-2.100;2022-12-07T06:25:13;4.16;83.36
22069;DHT22;13887;57.196;-2.100;2022-12-07T06:27:40;4.17;83.43
22069;DHT22;13887;57.196;-2.100;2022-12-07T06:30:07;4.19;83.31
22069;DHT22;13887;57.196;-2.100;2022-12-07T06:32:36;4.19;83.26
22069;DHT22;13887;57.196;-2.100;2022-12-07T06:35:04;4.17;83.30
22069;DHT22;13887;57.196;-2.100;2022-12-07T06:37:30;4.14;83.49
22069;DHT22;13887;57.196;-2.100;2022-12-07T06:39:57;4.15;83.65
22069;DHT22;13887;57.196;-2.100;2022-12-07T06:42:24;4.20;83.45
22069;DHT22;13887;57.196;-2.100;2022-12-07T06:44:51;4.17;83.52
22069;DHT22;13887;57.196;-2.100;2022-12-07T06:47:18;4.17;83.63
22069;DHT22;13887;57.196;-2.100;2022-12-07T06:50:05;4.12;83.83
22069;DHT22;13887;57.196;-2.100;2022-12-07T06:52:34;4.13;84.04
22069;DHT22;13887;57.196;-2.100;2022-12-07T06:55:01;4.16;83.94
22069;DHT22;13887;57.196;-2.100;2022-12-07T06:57:27;4.03;84.34
22069;DHT22;13887;57.196;-2.100;2022-12-07T06:59:54;3.97;84.36
22069;DHT22;13887;57.196;-2.100;2022-12-07T07:02:21;3.99;84.44
22069;DHT22;13887;57.196;-2.100;2022-12-07T07:04:48;4.02;84.26
22069;DHT22;13887;57.196;-2.100;2022-12-07T07:07:15;4.02;84.25
22069;DHT22;13887;57.196;-2.100;2022-12-07T07:09:42;4.03;84.03
22069;DHT22;13887;57.196;-2.100;2022-12-07T07:12:09;3.97;84.39
22069;DHT22;13887;57.196;-2.100;2022-12-07T07:14:36;3.97;84.48
22069;DHT22;13887;57.196;-2.100;2022-12-07T07:17:03;3.87;84.64
22069;DHT22;13887;57.196;-2.100;2022-12-07T07:19:30;3.86;85.00
22069;DHT22;13887;57.196;-2.100;2022-12-07T07:21:57;3.85;84.86
22069;DHT22;13887;57.196;-2.100;2022-12-07T07:24:24;3.93;84.73
22069;DHT22;13887;57.196;-2.100;2022-12-07T07:26:51;3.98;84.44
22069;DHT22;13887;57.196;-2.100;2022-12-07T07:29:17;3.95;84.51
22069;DHT22;13887;57.196;-2.100;2022-12-07T07:31:44;3.97;84.39
22069;DHT22;13887;57.196;-2.100;2022-12-07T07:34:11;3.93;84.23
22069;DHT22;13887;57.196;-2.100;2022-12-07T07:36:38;3.91;84.55
22069;DHT22;13887;57.196;-2.100;2022-12-07T07:39:05;3.92;84.51
22069;DHT22;13887;57.196;-2.100;2022-12-07T07:41:32;3.93;84.46
22069;DHT22;13887;57.196;-2.100;2022-12-07T07:44:01;3.94;84.29
22069;DHT22;13887;57.196;-2.100;2022-12-07T07:46:28;3.91;84.36
22069;DHT22;13887;57.196;-2.100;2022-12-07T07:48:55;3.90;84.37
22069;DHT22;13887;57.196;-2.100;2022-12-07T07:51:21;3.90;84.33
22069;DHT22;13887;57.196;-2.100;2022-12-07T07:53:48;3.94;84.31
22069;DHT22;13887;57.196;-2.100;2022-12-07T07:56:15;3.91;84.35
22069;DHT22;13887;57.196;-2.100;2022-12-07T07:58:42;3.91;84.32
22069;DHT22;13887;57.196;-2.100;2022-12-07T08:01:09;3.88;84.53
22069;DHT22;13887;57.196;-2.100;2022-12-07T08:03:36;3.92;84.39
22069;DHT22;13887;57.196;-2.100;2022-12-07T08:06:03;3.92;84.55
22069;DHT22;13887;57.196;-2.100;2022-12-07T08:08:30;3.49;86.67
22069;DHT22;13887;57.196;-2.100;2022-12-07T08:10:58;3.71;85.70
22069;DHT22;13887;57.196;-2.100;2022-12-07T08:13:27;3.82;85.00
22069;DHT22;13887;57.196;-2.100;2022-12-07T08:15:57;3.90;84.71
22069;DHT22;13887;57.196;-2.100;2022-12-07T08:18:25;3.89;84.72
22069;DHT22;13887;57.196;-2.100;2022-12-07T08:20:51;3.89;84.77
22069;DHT22;13887;57.196;-2.100;2022-12-07T08:23:18;3.91;84.68
22069;DHT22;13887;57.196;-2.100;2022-12-07T08:25:49;3.94;84.57
22069;DHT22;13887;57.196;-2.100;2022-12-07T08:28:16;3.90;84.55
22069;DHT22;13887;57.196;-2.100;2022-12-07T08:30:43;3.90;84.50
22069;DHT22;13887;57.196;-2.100;2022-12-07T08:33:10;3.91;84.48
22069;DHT22;13887;57.196;-2.100;2022-12-07T08:35:37;3.95;84.33
22069;DHT22;13887;57.196;-2.100;2022-12-07T08:38:04;3.94;84.34
22069;DHT22;13887;57.196;-2.100;2022-12-07T08:40:31;3.92;84.42
22069;DHT22;13887;57.196;-2.100;2022-12-07T08:42:58;3.90;84.50
22069;DHT22;13887;57.196;-2.100;2022-12-07T08:45:25;3.88;84.51
22069;DHT22;13887;57.196;-2.100;2022-12-07T08:48:07;3.90;84.42
22069;DHT22;13887;57.196;-2.100;2022-12-07T08:50:36;3.90;84.44
22069;DHT22;13887;57.196;-2.100;2022-12-07T08:53:04;3.92;84.32
22069;DHT22;13887;57.196;-2.100;2022-12-07T08:55:33;3.88;84.39
22069;DHT22;13887;57.196;-2.100;2022-12-07T08:58:02;3.90;84.32
22069;DHT22;13887;57.196;-2.100;2022-12-07T09:00:29;3.91;84.32
22069;DHT22;13887;57.196;-2.100;2022-12-07T09:02:56;3.89;84.45
22069;DHT22;13887;57.196;-2.100;2022-12-07T09:05:23;3.89;84.37
22069;DHT22;13887;57.196;-2.100;2022-12-07T09:07:51;3.88;84.39
22069;DHT22;13887;57.196;-2.100;2022-12-07T09:10:19;3.87;84.35
22069;DHT22;13887;57.196;-2.100;2022-12-07T09:12:46;3.87;84.32
22069;DHT22;13887;57.196;-2.100;2022-12-07T09:15:13;3.88;84.30
22069;DHT22;13887;57.196;-2.100;2022-12-07T09:17:39;3.91;84.20
22069;DHT22;13887;57.196;-2.100;2022-12-07T09:20:07;3.90;84.19
22069;DHT22;13887;57.196;-2.100;2022-12-07T09:22:34;3.91;84.23
22069;DHT22;13887;57.196;-2.100;2022-12-07T09:25:01;3.93;84.13
22069;DHT22;13887;57.196;-2.100;2022-12-07T09:27:28;3.93;84.09
22069;DHT22;13887;57.196;-2.100;2022-12-07T09:29:55;3.91;84.09
22069;DHT22;13887;57.196;-2.100;2022-12-07T09:32:22;3.90;84.07
22069;DHT22;13887;57.196;-2.100;2022-12-07T09:34:49;3.91;84.01
22069;DHT22;13887;57.196;-2.100;2022-12-07T09:37:16;3.92;84.08
22069;DHT22;13887;57.196;-2.100;2022-12-07T09:39:43;3.93;83.90
22069;DHT22;13887;57.196;-2.100;2022-12-07T09:42:38;3.92;84.02
22069;DHT22;13887;57.196;-2.100;2022-12-07T09:45:46;3.92;84.10
22069;DHT22;13887;57.196;-2.100;2022-12-07T09:50:52;3.94;84.03
22069;DHT22;13887;57.196;-2.100;2022-12-07T09:53:36;3.93;84.08
22069;DHT22;13887;57.196;-2.100;2022-12-07T09:56:04;3.90;84.13
22069;DHT22;13887;57.196;-2.100;2022-12-07T09:58:32;3.87;84.28
22069;DHT22;13887;57.196;-2.100;2022-12-07T10:03:36;3.90;84.15
22069;DHT22;13887;57.196;-2.100;2022-12-07T10:06:04;3.89;84.19
22069;DHT22;13887;57.196;-2.100;2022-12-07T10:08:32;3.94;84.07
22069;DHT22;13887;57.196;-2.100;2022-12-07T10:11:03;3.93;84.13
22069;DHT22;13887;57.196;-2.100;2022-12-07T10:16:01;3.89;84.41
22069;DHT22;13887;57.196;-2.100;2022-12-07T10:18:40;3.92;84.35
22069;DHT22;13887;57.196;-2.100;2022-12-07T10:29:02;3.91;84.52
22069;DHT22;13887;57.196;-2.100;2022-12-07T10:31:30;3.88;84.77
22069;DHT22;13887;57.196;-2.100;2022-12-07T10:33:59;3.87;84.70
22069;DHT22;13887;57.196;-2.100;2022-12-07T10:36:37;3.85;84.84
22069;DHT22;13887;57.196;-2.100;2022-12-07T10:39:13;3.82;84.85
22069;DHT22;13887;57.196;-2.100;2022-12-07T10:44:28;3.82;84.92
22069;DHT22;13887;57.196;-2.100;2022-12-07T10:55:08;3.85;84.87
22069;DHT22;13887;57.196;-2.100;2022-12-07T11:00:25;3.87;84.97
22069;DHT22;13887;57.196;-2.100;2022-12-07T11:03:29;3.92;84.88
22069;DHT22;13887;57.196;-2.100;2022-12-07T11:11:30;3.88;85.39
22069;DHT22;13887;57.196;-2.100;2022-12-07T11:17:08;3.88;85.52
22069;DHT22;13887;57.196;-2.100;2022-12-07T11:19:53;3.88;85.53
22069;DHT22;13887;57.196;-2.100;2022-12-07T11:25:32;3.88;85.54
22069;DHT22;13887;57.196;-2.100;2022-12-07T11:33:33;3.93;85.48
22069;DHT22;13887;57.196;-2.100;2022-12-07T11:36:13;3.92;85.79
22069;DHT22;13887;57.196;-2.100;2022-12-07T11:38:54;3.97;85.80
22069;DHT22;13887;57.196;-2.100;2022-12-07T11:41:32;3.98;85.55
22069;DHT22;13887;57.196;-2.100;2022-12-07T11:44:06;4.01;85.51
22069;DHT22;13887;57.196;-2.100;2022-12-07T11:52:06;4.05;85.89
22069;DHT22;13887;57.196;-2.100;2022-12-07T11:54:40;4.08;85.97
22069;DHT22;13887;57.196;-2.100;2022-12-07T11:57:20;4.12;85.90
22069;DHT22;13887;57.196;-2.100;2022-12-07T11:59:54;4.14;85.85
22069;DHT22;13887;57.196;-2.100;2022-12-07T12:02:28;4.12;85.99
22069;DHT22;13887;57.196;-2.100;2022-12-07T12:05:17;4.13;85.87
22069;DHT22;13887;57.196;-2.100;2022-12-07T12:07:48;4.12;86.12
22069;DHT22;13887;57.196;-2.100;2022-12-07T12:10:54;4.14;86.26
22069;DHT22;13887;57.196;-2.100;2022-12-07T12:13:28;4.10;86.19
22069;DHT22;13887;57.196;-2.100;2022-12-07T12:19:57;4.06;86.44
22069;DHT22;13887;57.196;-2.100;2022-12-07T12:22:39;4.07;86.46
22069;DHT22;13887;57.196;-2.100;2022-12-07T12:25:25;4.07;86.35
22069;DHT22;13887;57.196;-2.100;2022-12-07T12:27:55;4.07;86.48
22069;DHT22;13887;57.196;-2.100;2022-12-07T12:33:19;4.08;86.36
22069;DHT22;13887;57.196;-2.100;2022-12-07T12:38:48;4.15;86.25
22069;DHT22;13887;57.196;-2.100;2022-12-07T12:51:44;4.17;86.40
22069;DHT22;13887;57.196;-2.100;2022-12-07T12:54:27;4.16;86.37
22069;DHT22;13887;57.196;-2.100;2022-12-07T13:15:45;4.06;86.98
22069;DHT22;13887;57.196;-2.100;2022-12-07T13:31:57;3.99;87.19
22069;DHT22;13887;57.196;-2.100;2022-12-07T13:34:39;4.00;87.12
22069;DHT22;13887;57.196;-2.100;2022-12-07T13:39:57;3.91;87.35
22069;DHT22;13887;57.196;-2.100;2022-12-07T13:42:29;3.97;87.20
22069;DHT22;13887;57.196;-2.100;2022-12-07T13:45:00;3.95;87.09
22069;DHT22;13887;57.196;-2.100;2022-12-07T13:47:36;3.95;87.16
22069;DHT22;13887;57.196;-2.100;2022-12-07T13:52:48;3.90;87.15
22069;DHT22;13887;57.196;-2.100;2022-12-07T13:55:16;3.91;87.04
22069;DHT22;13887;57.196;-2.100;2022-12-07T13:57:46;3.87;87.15
22069;DHT22;13887;57.196;-2.100;2022-12-07T14:00:17;3.89;87.12
22069;DHT22;13887;57.196;-2.100;2022-12-07T14:05:29;3.88;87.12
22069;DHT22;13887;57.196;-2.100;2022-12-07T14:07:59;3.90;87.03
22069;DHT22;13887;57.196;-2.100;2022-12-07T14:13:01;3.98;86.83
22069;DHT22;13887;57.196;-2.100;2022-12-07T14:15:30;3.93;86.85
22069;DHT22;13887;57.196;-2.100;2022-12-07T14:17:59;3.94;86.88
22069;DHT22;13887;57.196;-2.100;2022-12-07T14:20:37;3.97;86.79
22069;DHT22;13887;57.196;-2.100;2022-12-07T14:23:24;3.95;86.72
22069;DHT22;13887;57.196;-2.100;2022-12-07T14:25:52;3.95;86.74
22069;DHT22;13887;57.196;-2.100;2022-12-07T14:28:31;3.94;86.84
22069;DHT22;13887;57.196;-2.100;2022-12-07T14:30:59;3.94;86.75
22069;DHT22;13887;57.196;-2.100;2022-12-07T14:33:26;3.90;86.59
22069;DHT22;13887;57.196;-2.100;2022-12-07T14:35:54;3.87;86.56
22069;DHT22;13887;57.196;-2.100;2022-12-07T14:38:22;3.86;86.56
22069;DHT22;13887;57.196;-2.100;2022-12-07T14:40:49;3.86;86.59
22069;DHT22;13887;57.196;-2.100;2022-12-07T14:43:17;3.87;86.55
22069;DHT22;13887;57.196;-2.100;2022-12-07T14:45:44;3.83;86.63
22069;DHT22;13887;57.196;-2.100;2022-12-07T14:48:13;3.79;86.79
22069;DHT22;13887;57.196;-2.100;2022-12-07T14:51:00;3.80;86.65
22069;DHT22;13887;57.196;-2.100;2022-12-07T14:53:50;3.80;86.64
22069;DHT22;13887;57.196;-2.100;2022-12-07T14:56:24;3.77;86.70
22069;DHT22;13887;57.196;-2.100;2022-12-07T14:58:51;3.76;86.63
22069;DHT22;13887;57.196;-2.100;2022-12-07T15:01:18;3.72;86.54
22069;DHT22;13887;57.196;-2.100;2022-12-07T15:03:45;3.71;86.63
22069;DHT22;13887;57.196;-2.100;2022-12-07T15:06:17;3.70;86.68
22069;DHT22;13887;57.196;-2.100;2022-12-07T15:08:44;3.73;86.47
22069;DHT22;13887;57.196;-2.100;2022-12-07T15:11:13;3.70;86.47
22069;DHT22;13887;57.196;-2.100;2022-12-07T15:13:40;3.76;86.22
22069;DHT22;13887;57.196;-2.100;2022-12-07T15:16:26;3.76;86.16
22069;DHT22;13887;57.196;-2.100;2022-12-07T15:18:56;3.71;86.20
22069;DHT22;13887;57.196;-2.100;2022-12-07T15:21:43;3.74;86.25
22069;DHT22;13887;57.196;-2.100;2022-12-07T15:24:11;3.76;86.11
22069;DHT22;13887;57.196;-2.100;2022-12-07T15:26:39;3.76;86.02
22069;DHT22;13887;57.196;-2.100;2022-12-07T15:29:06;3.73;86.15
22069;DHT22;13887;57.196;-2.100;2022-12-07T15:31:34;3.74;86.15
22069;DHT22;13887;57.196;-2.100;2022-12-07T15:34:21;3.76;85.96
22069;DHT22;13887;57.196;-2.100;2022-12-07T15:36:49;3.71;86.14
22069;DHT22;13887;57.196;-2.100;2022-12-07T15:39:16;3.73;86.26
22069;DHT22;13887;57.196;-2.100;2022-12-07T15:41:43;3.73;85.94
22069;DHT22;13887;57.196;-2.100;2022-12-07T15:44:12;3.73;86.03
22069;DHT22;13887;57.196;-2.100;2022-12-07T15:46:57;3.73;85.89
22069;DHT22;13887;57.196;-2.100;2022-12-07T15:49:24;3.75;85.89
22069;DHT22;13887;57.196;-2.100;2022-12-07T15:51:51;3.72;85.74
22069;DHT22;13887;57.196;-2.100;2022-12-07T15:54:21;3.74;85.71
22069;DHT22;13887;57.196;-2.100;2022-12-07T15:56:48;3.72;85.69
22069;DHT22;13887;57.196;-2.100;2022-12-07T15:59:15;3.75;85.80
22069;DHT22;13887;57.196;-2.100;2022-12-07T16:01:43;3.72;85.75
22069;DHT22;13887;57.196;-2.100;2022-12-07T16:04:10;3.73;85.79
22069;DHT22;13887;57.196;-2.100;2022-12-07T16:06:37;3.69;85.80
22069;DHT22;13887;57.196;-2.100;2022-12-07T16:09:05;3.67;85.85
22069;DHT22;13887;57.196;-2.100;2022-12-07T16:11:32;3.69;85.74
22069;DHT22;13887;57.196;-2.100;2022-12-07T16:13:59;3.64;85.77
22069;DHT22;13887;57.196;-2.100;2022-12-07T16:16:26;3.65;85.87
22069;DHT22;13887;57.196;-2.100;2022-12-07T16:18:54;3.69;85.64
22069;DHT22;13887;57.196;-2.100;2022-12-07T16:21:21;3.64;85.63
22069;DHT22;13887;57.196;-2.100;2022-12-07T16:23:51;3.63;85.68
22069;DHT22;13887;57.196;-2.100;2022-12-07T16:26:20;3.62;85.80
22069;DHT22;13887;57.196;-2.100;2022-12-07T16:28:52;3.64;85.77
22069;DHT22;13887;57.196;-2.100;2022-12-07T16:31:22;3.62;85.84
22069;DHT22;13887;57.196;-2.100;2022-12-07T16:33:49;3.63;85.71
22069;DHT22;13887;57.196;-2.100;2022-12-07T16:36:17;3.67;85.65
22069;DHT22;13887;57.196;-2.100;2022-12-07T16:39:05;3.65;85.61
22069;DHT22;13887;57.196;-2.100;2022-12-07T16:41:32;3.68;85.67
22069;DHT22;13887;57.196;-2.100;2022-12-07T16:44:05;3.67;85.66
22069;DHT22;13887;57.196;-2.100;2022-12-07T16:46:33;3.62;85.56
22069;DHT22;13887;57.196;-2.100;2022-12-07T16:49:01;3.62;85.89
22069;DHT22;13887;57.196;-2.100;2022-12-07T16:51:28;3.64;85.70
22069;DHT22;13887;57.196;-2.100;2022-12-07T16:53:55;3.69;85.64
22069;DHT22;13887;57.196;-2.100;2022-12-07T16:56:22;3.69;85.52
22069;DHT22;13887;57.196;-2.100;2022-12-07T16:58:49;3.75;85.32
22069;DHT22;13887;57.196;-2.100;2022-12-07T17:01:18;3.77;85.19
22069;DHT22;13887;57.196;-2.100;2022-12-07T17:03:46;3.76;85.17
22069;DHT22;13887;57.196;-2.100;2022-12-07T17:06:16;3.69;85.26
22069;DHT22;13887;57.196;-2.100;2022-12-07T17:08:43;3.63;85.64
22069;DHT22;13887;57.196;-2.100;2022-12-07T17:11:21;3.65;85.35
22069;DHT22;13887;57.196;-2.100;2022-12-07T17:13:49;3.67;85.23
22069;DHT22;13887;57.196;-2.100;2022-12-07T17:16:35;3.62;85.02
22069;DHT22;13887;57.196;-2.100;2022-12-07T17:19:06;3.58;85.48
22069;DHT22;13887;57.196;-2.100;2022-12-07T17:21:34;3.63;85.29
22069;DHT22;13887;57.196;-2.100;2022-12-07T17:24:03;3.64;85.20
22069;DHT22;13887;57.196;-2.100;2022-12-07T17:26:30;3.62;85.25
22069;DHT22;13887;57.196;-2.100;2022-12-07T17:29:02;3.63;85.13
22069;DHT22;13887;57.196;-2.100;2022-12-07T17:31:29;3.62;85.17
22069;DHT22;13887;57.196;-2.100;2022-12-07T17:33:56;3.57;85.41
22069;DHT22;13887;57.196;-2.100;2022-12-07T17:36:26;3.57;85.42
22069;DHT22;13887;57.196;-2.100;2022-12-07T17:38:53;3.40;85.09
22069;DHT22;13887;57.196;-2.100;2022-12-07T17:41:23;2.72;89.77
22069;DHT22;13887;57.196;-2.100;2022-12-07T17:44:14;3.19;87.09
22069;DHT22;13887;57.196;-2.100;2022-12-07T17:46:43;3.34;86.38
22069;DHT22;13887;57.196;-2.100;2022-12-07T17:49:10;3.41;85.92
22069;DHT22;13887;57.196;-2.100;2022-12-07T17:51:37;3.44;85.84
22069;DHT22;13887;57.196;-2.100;2022-12-07T17:54:23;3.46;85.73
22069;DHT22;13887;57.196;-2.100;2022-12-07T17:56:50;3.50;85.75
22069;DHT22;13887;57.196;-2.100;2022-12-07T17:59:17;3.49;85.55
22069;DHT22;13887;57.196;-2.100;2022-12-07T18:01:44;3.52;85.64
22069;DHT22;13887;57.196;-2.100;2022-12-07T18:04:11;3.47;85.50
22069;DHT22;13887;57.196;-2.100;2022-12-07T18:06:38;3.44;85.75
22069;DHT22;13887;57.196;-2.100;2022-12-07T18:09:05;3.44;85.62
22069;DHT22;13887;57.196;-2.100;2022-12-07T18:11:33;3.47;85.66
22069;DHT22;13887;57.196;-2.100;2022-12-07T18:14:00;3.45;85.49
22069;DHT22;13887;57.196;-2.100;2022-12-07T18:16:29;3.45;85.79
22069;DHT22;13887;57.196;-2.100;2022-12-07T18:19:05;3.45;85.62
22069;DHT22;13887;57.196;-2.100;2022-12-07T18:21:32;3.50;85.64
22069;DHT22;13887;57.196;-2.100;2022-12-07T18:24:01;3.47;85.71